INFORMACIÓN METAR y TAF
METAR FOR GMAD
ADDS - METARS form results

(0905 UTC 15 April 2021)
Data provider http://aviationweather.gov/metar/data/
 
METAR text: GMAD 150900Z 27014KT 9999 FEW030 22/13 Q1010 NOSIG
Conditions at: GMAD (AL MASSIRA MC , MA) observed 0900 UTC 15 April 2021
Temperature: 22.0°C (72°F)
Dewpoint: 13.0°C (55°F) [RH = 57%]
Pressure (altimeter): 29.82 inches Hg (1010.0 mb)
Winds: from the W (270 degrees) at 16 MPH (14 knots; 7.2 m/s)
Visibility: 6 or more miles (10+ km)
Ceiling: at least 12,000 feet AGL
Clouds: few clouds at 3000 feet AGL
Weather: no significant weather observed at this time

METAR text: GMAD 150830Z 31003KT 250V020 9999 FEW030 20/13 Q1010 NOSIG
Conditions at: GMAD (AL MASSIRA MC , MA) observed 0830 UTC 15 April 2021
Temperature: 20.0°C (68°F)
Dewpoint: 13.0°C (55°F) [RH = 64%]
Pressure (altimeter): 29.82 inches Hg (1010.0 mb)
Winds: from the NW (310 degrees) at 3 MPH (3 knots; 1.5 m/s)
Visibility: 6 or more miles (10+ km)
Ceiling: at least 12,000 feet AGL
Clouds: few clouds at 3000 feet AGL
Weather: no significant weather observed at this time

Forecast for: GMAD (AL MASSIRA MC , MA)
Text: TAF GMAD 150500Z 1506/1612 18006KT 8000 SCT016
Forecast period: 0600 to 1200 UTC 15 April 2021
Forecast type: FROM: standard forecast or significant change
Winds: from the S (180 degrees) at 7 MPH (6 knots; 3.1 m/s)
Visibility: 5 miles (8 km)
Ceiling: at least 12,000 feet AGL
Clouds: scattered clouds at 1600 feet AGL
Weather: no significant weather forecast for this period
Text: BECMG 1512/1514 28014KT
Forecast period: 1200 to 1900 UTC 15 April 2021
Forecast type: BECOMING: Conditions expected to become as follows by 1400 UTC 15 April 2021
Winds: from the W (280 degrees) at 16 MPH (14 knots; 7.2 m/s)
Visibility: 5 miles (8 km)
Ceiling: at least 12,000 feet AGL
Clouds: scattered clouds at 1600 feet AGL
Weather: no significant weather forecast for this period
Text: BECMG 1519/1522 18006KT
Forecast period: 1900 UTC 15 April 2021 to 1200 UTC 16 April 2021
Forecast type: BECOMING: Conditions expected to become as follows by 2200 UTC 15 April 2021
Winds: from the S (180 degrees) at 7 MPH (6 knots; 3.1 m/s)
Visibility: 5 miles (8 km)
Ceiling: at least 12,000 feet AGL
Clouds: scattered clouds at 1600 feet AGL
Weather: no significant weather forecast for this period

 MAPA DE AEROPUERTO

 INFORMACIÓN DE PISTA
Pista 10 Longitud 10499 ft Ancho 148 ft
Elevación 198 ft Umbral desplazado 0 ft Rumbo de pista 92
Pista 28 Longitud 10499 ft Ancho 148 ft
Elevación 254 ft Umbral desplazado 0 ft Rumbo de pista 272

 FRECUANCIAS DEL AEROPUERTO
Tipo APP Nombre AGADIR APP Frecuencia 120.9 MHZ
Tipo TWR Nombre AGADIR TWR Frecuencia 119.5 MHZ

 RADIO AYUDAS DEL AEROPUERTO
Tipo VOR-DME Nombre Agadir Frecuencia 117200 KHZ
Tipo NDB Nombre Agadir Frecuencia 396 KHZ
Tipo NDB Nombre Agadir Frecuencia 402 KHZ



Powered by Virtual Airlines Manager [v2.6.2]